createdAt,value
2017-12-30T00:01:23.580Z,2.42
2017-12-30T00:03:53.418Z,3.05
2017-12-30T00:06:23.107Z,2.97
2017-12-30T00:08:52.908Z,3.22
2017-12-30T00:11:22.725Z,2.35
2017-12-30T00:13:52.542Z,2.42
2017-12-30T00:16:22.350Z,1.90
2017-12-30T00:18:52.197Z,1.90
2017-12-30T00:21:21.768Z,2.90
2017-12-30T00:23:51.863Z,3.58
2017-12-30T00:26:21.703Z,2.60
2017-12-30T00:28:51.517Z,2.50
2017-12-30T00:31:21.323Z,1.90
2017-12-30T00:33:51.133Z,2.45
2017-12-30T00:36:20.957Z,2.10
2017-12-30T00:38:50.967Z,2.30
2017-12-30T00:41:20.788Z,2.75
2017-12-30T00:43:50.592Z,3.40
2017-12-30T00:46:20.427Z,4.10
2017-12-30T00:48:50.227Z,2.47
2017-12-30T00:51:20.345Z,2.65
2017-12-30T00:53:50.159Z,2.45
2017-12-30T00:56:19.972Z,3.28
2017-12-30T00:58:50.176Z,3.25
2017-12-30T01:01:20.322Z,2.62
2017-12-30T01:03:50.112Z,7.32
2017-12-30T01:06:19.933Z,2.22
2017-12-30T01:08:49.737Z,4.65
2017-12-30T01:11:19.548Z,3.00
2017-12-30T01:13:49.355Z,2.60
2017-12-30T01:16:19.160Z,2.80
2017-12-30T01:18:48.976Z,4.28
2017-12-30T01:21:18.817Z,3.03
2017-12-30T01:23:48.608Z,5.37
2017-12-30T01:26:18.395Z,4.37
2017-12-30T01:28:48.215Z,3.30
2017-12-30T01:31:18.010Z,5.30
2017-12-30T01:33:47.831Z,4.30
2017-12-30T01:36:18.339Z,5.30
2017-12-30T01:38:48.147Z,6.32
2017-12-30T01:41:18.160Z,4.78
2017-12-30T01:43:47.953Z,5.50
2017-12-30T01:46:17.780Z,5.15
2017-12-30T01:48:58.642Z,6.15
2017-12-30T01:51:28.457Z,3.97
2017-12-30T01:53:58.284Z,6.10
2017-12-30T01:56:27.841Z,3.47
2017-12-30T01:58:57.646Z,4.93
2017-12-30T02:01:27.465Z,3.40
2017-12-30T02:03:57.484Z,2.95
2017-12-30T02:06:27.285Z,3.35
2017-12-30T02:08:57.089Z,3.15
2017-12-30T02:11:27.719Z,7.25
2017-12-30T02:13:57.521Z,3.53
2017-12-30T02:16:27.553Z,4.90
2017-12-30T02:18:57.387Z,4.35
2017-12-30T02:21:27.220Z,6.18
2017-12-30T02:23:57.028Z,6.10
2017-12-30T02:26:26.819Z,3.33
2017-12-30T02:28:56.633Z,4.32
2017-12-30T02:31:26.415Z,3.47
2017-12-30T02:33:56.355Z,3.53
2017-12-30T02:36:26.139Z,5.05
2017-12-30T02:38:55.952Z,3.92
2017-12-30T02:41:25.754Z,3.30
2017-12-30T02:43:55.284Z,4.05
2017-12-30T02:46:25.092Z,4.10
2017-12-30T02:48:54.898Z,4.80
2017-12-30T02:51:24.705Z,4.80
2017-12-30T02:53:54.526Z,5.35
2017-12-30T02:56:24.315Z,7.18
2017-12-30T02:58:54.113Z,7.80
2017-12-30T03:01:23.951Z,6.35
2017-12-30T03:03:53.746Z,6.20
2017-12-30T03:06:23.330Z,4.68
2017-12-30T03:08:53.101Z,8.30
2017-12-30T03:11:22.920Z,4.82
2017-12-30T03:13:52.713Z,9.85
2017-12-30T03:16:22.516Z,5.87
2017-12-30T03:18:52.040Z,8.10
2017-12-30T03:21:21.615Z,7.03
2017-12-30T03:23:51.407Z,5.80
2017-12-30T03:26:21.213Z,6.12
2017-12-30T03:28:51.231Z,6.35
2017-12-30T03:31:21.042Z,6.00
2017-12-30T03:33:50.829Z,7.85
2017-12-30T03:36:20.642Z,5.32
2017-12-30T03:38:50.447Z,5.55
2017-12-30T03:41:20.264Z,5.03
2017-12-30T03:43:50.089Z,6.80
2017-12-30T03:46:19.888Z,5.40
2017-12-30T03:48:49.672Z,4.95
2017-12-30T03:51:19.472Z,4.78
2017-12-30T03:53:49.254Z,5.12
2017-12-30T03:56:19.066Z,4.57
2017-12-30T03:58:48.529Z,4.07
2017-12-30T04:01:19.142Z,3.90
2017-12-30T04:03:48.946Z,3.80
2017-12-30T04:06:18.760Z,4.53
2017-12-30T04:08:48.564Z,4.18
2017-12-30T04:11:18.366Z,5.12
2017-12-30T04:13:48.163Z,5.57
2017-12-30T04:16:17.988Z,4.22
2017-12-30T04:18:47.781Z,5.12
2017-12-30T04:21:17.329Z,7.10
2017-12-30T04:23:47.148Z,5.22
2017-12-30T04:26:17.168Z,5.15
2017-12-30T04:28:46.972Z,8.27
2017-12-30T04:31:16.751Z,5.28
2017-12-30T04:33:46.550Z,5.00
2017-12-30T04:36:16.875Z,5.03
2017-12-30T04:38:46.660Z,10.68
2017-12-30T04:41:16.475Z,6.18
2017-12-30T04:43:46.264Z,5.75
2017-12-30T04:46:16.063Z,4.07
2017-12-30T04:48:45.873Z,6.62
2017-12-30T04:51:16.066Z,5.25
2017-12-30T04:53:45.853Z,4.20
2017-12-30T04:56:15.702Z,6.82
2017-12-30T04:58:45.507Z,5.10
2017-12-30T05:01:15.296Z,4.10
2017-12-30T05:03:45.155Z,4.55
2017-12-30T05:06:14.954Z,6.50
2017-12-30T05:08:44.764Z,5.82
2017-12-30T05:11:14.555Z,6.00
2017-12-30T05:13:44.387Z,4.90
2017-12-30T05:16:14.208Z,4.75
2017-12-30T05:18:44.021Z,7.40
2017-12-30T05:21:13.838Z,8.35
2017-12-30T05:23:43.643Z,5.32
2017-12-30T05:26:14.264Z,8.02
2017-12-30T05:28:44.075Z,8.27
2017-12-30T05:31:13.908Z,5.80
2017-12-30T05:33:43.746Z,7.82
2017-12-30T05:36:13.645Z,8.95
2017-12-30T05:38:43.613Z,7.20
2017-12-30T05:41:13.417Z,7.60
2017-12-30T05:43:43.217Z,7.45
2017-12-30T05:46:13.020Z,12.13
2017-12-30T05:48:42.828Z,6.28
2017-12-30T05:51:12.619Z,6.28
2017-12-30T05:53:42.414Z,9.85
2017-12-30T05:56:12.264Z,8.82
2017-12-30T05:58:42.063Z,8.00
2017-12-30T06:01:11.853Z,6.78
2017-12-30T06:03:41.663Z,7.18
2017-12-30T06:06:12.123Z,6.25
2017-12-30T06:08:41.940Z,5.97
2017-12-30T06:11:11.730Z,8.20
2017-12-30T06:13:41.533Z,12.43
2017-12-30T06:16:11.342Z,11.18
2017-12-30T06:18:41.192Z,6.80
2017-12-30T06:21:11.014Z,17.35
2017-12-30T06:23:40.827Z,8.90
2017-12-30T06:26:10.631Z,6.32
2017-12-30T06:28:40.589Z,8.68
2017-12-30T06:31:10.411Z,10.23
2017-12-30T06:33:40.221Z,10.30
2017-12-30T06:36:10.040Z,16.23
2017-12-30T06:38:39.909Z,7.28
2017-12-30T06:41:09.967Z,8.80
2017-12-30T06:43:40.171Z,8.68
2017-12-30T06:46:09.986Z,8.15
2017-12-30T06:48:39.800Z,10.52
2017-12-30T06:51:09.633Z,8.75
2017-12-30T06:53:42.405Z,7.45
2017-12-30T06:56:13.101Z,8.13
2017-12-30T06:58:42.968Z,15.32
2017-12-30T07:01:12.884Z,9.65
2017-12-30T07:03:42.807Z,9.98
2017-12-30T07:06:12.745Z,9.73
2017-12-30T07:08:42.862Z,13.27
2017-12-30T07:11:12.990Z,10.82
2017-12-30T07:13:43.602Z,10.27
2017-12-30T07:16:14.114Z,13.10
2017-12-30T07:18:43.893Z,11.68
2017-12-30T07:21:13.872Z,9.88
2017-12-30T07:23:43.675Z,9.88
2017-12-30T07:26:13.484Z,10.93
2017-12-30T07:28:43.334Z,13.73
2017-12-30T07:31:13.206Z,10.13
2017-12-30T07:33:42.864Z,14.15
2017-12-30T07:36:12.704Z,10.50
2017-12-30T07:38:42.627Z,10.63
2017-12-30T07:41:12.504Z,10.00
2017-12-30T07:43:42.336Z,10.70
2017-12-30T07:46:12.203Z,11.05
2017-12-30T07:48:42.064Z,11.80
2017-12-30T07:51:11.874Z,11.23
2017-12-30T07:53:41.675Z,11.35
2017-12-30T07:56:11.488Z,13.68
2017-12-30T07:58:41.316Z,13.07
2017-12-30T08:01:11.088Z,15.55
2017-12-30T08:03:40.892Z,16.35
2017-12-30T08:06:10.753Z,19.30
2017-12-30T08:08:40.554Z,17.48
2017-12-30T08:11:10.177Z,20.25
2017-12-30T08:13:40.006Z,18.55
2017-12-30T08:16:09.880Z,20.10
2017-12-30T08:18:39.741Z,20.05
2017-12-30T08:21:09.775Z,21.50
2017-12-30T08:23:39.711Z,19.85
2017-12-30T08:26:09.493Z,19.67
2017-12-30T08:28:39.454Z,14.63
2017-12-30T08:31:09.272Z,18.35
2017-12-30T08:33:39.211Z,17.87
2017-12-30T08:36:08.989Z,18.05
2017-12-30T08:38:38.843Z,18.95
2017-12-30T08:41:09.038Z,18.48
2017-12-30T08:43:38.891Z,16.08
2017-12-30T08:46:08.436Z,18.62
2017-12-30T08:48:38.340Z,16.55
2017-12-30T08:51:08.148Z,19.73
2017-12-30T08:53:38.018Z,24.33
2017-12-30T08:56:08.583Z,21.50
2017-12-30T08:58:38.461Z,18.12
2017-12-30T09:01:08.261Z,15.85
2017-12-30T09:03:38.205Z,18.23
2017-12-30T09:06:07.992Z,18.92
2017-12-30T09:08:37.784Z,18.55
2017-12-30T09:11:09.529Z,13.90
2017-12-30T09:13:39.388Z,16.30
2017-12-30T09:16:09.283Z,18.73
2017-12-30T09:18:39.125Z,18.23
2017-12-30T09:21:08.974Z,17.90
2017-12-30T09:23:38.775Z,13.60
2017-12-30T09:26:08.628Z,16.98
2017-12-30T09:28:39.823Z,11.98
2017-12-30T09:31:09.671Z,14.23
2017-12-30T09:33:39.504Z,15.05
2017-12-30T09:36:09.315Z,18.10
2017-12-30T09:38:39.124Z,16.73
2017-12-30T09:41:09.009Z,20.12
2017-12-30T09:43:38.808Z,16.45
2017-12-30T09:46:08.702Z,15.10
2017-12-30T09:48:42.092Z,14.25
2017-12-30T09:51:11.924Z,19.77
2017-12-30T09:53:41.735Z,16.27
2017-12-30T09:56:12.117Z,14.75
2017-12-30T09:58:42.226Z,13.38
2017-12-30T10:01:12.078Z,12.57
2017-12-30T10:03:42.022Z,13.70
2017-12-30T10:06:11.854Z,14.05
2017-12-30T10:08:41.727Z,19.10
2017-12-30T10:11:11.633Z,20.10
2017-12-30T10:13:42.035Z,19.42
2017-12-30T10:16:11.869Z,17.92
2017-12-30T10:18:41.804Z,17.95
2017-12-30T10:21:11.731Z,17.40
2017-12-30T10:23:41.535Z,19.55
2017-12-30T10:26:11.393Z,20.35
2017-12-30T10:28:41.430Z,14.63
2017-12-30T10:31:11.262Z,20.60
2017-12-30T10:33:41.150Z,18.85
2017-12-30T10:36:10.945Z,19.05
2017-12-30T10:38:40.479Z,15.90
2017-12-30T10:41:10.340Z,16.77
2017-12-30T10:43:40.238Z,19.48
2017-12-30T10:46:10.122Z,11.32
2017-12-30T10:48:40.296Z,18.25
2017-12-30T10:51:10.570Z,17.33
2017-12-30T10:53:41.214Z,16.80
2017-12-30T10:56:11.344Z,17.90
2017-12-30T10:58:41.266Z,20.00
2017-12-30T11:01:11.179Z,16.85
2017-12-30T11:03:41.033Z,20.17
2017-12-30T11:06:10.981Z,20.95
2017-12-30T11:08:41.183Z,21.48
2017-12-30T11:11:11.069Z,18.85
2017-12-30T11:13:41.079Z,18.00
2017-12-30T11:16:11.036Z,19.70
2017-12-30T11:18:40.916Z,19.02
2017-12-30T11:21:10.728Z,22.33
2017-12-30T11:23:40.778Z,19.05
2017-12-30T11:26:10.755Z,22.25
2017-12-30T11:28:40.633Z,19.98
2017-12-30T11:31:10.281Z,24.00
2017-12-30T11:33:40.233Z,28.10
2017-12-30T11:36:10.063Z,24.25
2017-12-30T11:38:39.907Z,19.80
2017-12-30T11:41:09.926Z,23.30
2017-12-30T11:43:39.769Z,22.27
2017-12-30T11:46:10.833Z,25.50
2017-12-30T11:48:40.672Z,21.58
2017-12-30T11:51:10.583Z,20.98
2017-12-30T11:53:40.457Z,17.52
2017-12-30T11:56:10.460Z,22.40
2017-12-30T11:58:40.781Z,18.87
2017-12-30T12:01:10.653Z,18.40
2017-12-30T12:03:41.215Z,18.35
2017-12-30T12:06:13.399Z,19.62
2017-12-30T12:08:43.217Z,15.95
2017-12-30T12:11:13.840Z,20.20
2017-12-30T12:13:43.727Z,16.08
2017-12-30T12:16:13.947Z,18.33
2017-12-30T12:18:44.114Z,14.75
2017-12-30T12:21:14.876Z,23.60
2017-12-30T12:23:44.748Z,19.10
2017-12-30T12:26:18.833Z,15.45
2017-12-30T12:28:48.657Z,16.98
2017-12-30T12:31:18.517Z,16.62
2017-12-30T12:33:48.400Z,13.57
2017-12-30T12:36:18.264Z,17.92
2017-12-30T12:38:48.074Z,17.33
2017-12-30T12:41:19.029Z,19.50
2017-12-30T12:43:48.934Z,17.80
2017-12-30T12:46:18.796Z,18.90
2017-12-30T12:48:48.730Z,16.58
2017-12-30T12:51:19.108Z,18.10
2017-12-30T12:53:49.029Z,21.15
2017-12-30T12:56:19.151Z,17.25
2017-12-30T12:58:49.060Z,14.57
2017-12-30T13:01:18.885Z,18.25
2017-12-30T13:03:48.725Z,17.23
2017-12-30T13:06:18.604Z,13.82
2017-12-30T13:08:48.551Z,18.02
2017-12-30T13:11:19.100Z,16.00
2017-12-30T13:13:49.220Z,15.82
2017-12-30T13:16:19.038Z,13.23
2017-12-30T13:18:48.889Z,12.93
2017-12-30T13:21:18.939Z,17.50
2017-12-30T13:23:49.154Z,13.68
2017-12-30T13:26:18.977Z,11.00
2017-12-30T13:28:50.878Z,13.02
2017-12-30T13:31:20.702Z,10.27
2017-12-30T13:33:50.640Z,9.40
2017-12-30T13:36:20.526Z,10.05
2017-12-30T13:38:50.337Z,9.48
2017-12-30T13:41:20.641Z,8.32
2017-12-30T13:43:50.537Z,10.40
2017-12-30T13:46:20.428Z,6.95
2017-12-30T13:48:50.454Z,10.30
2017-12-30T13:51:20.305Z,10.23
2017-12-30T13:53:50.204Z,7.95
2017-12-30T13:56:20.012Z,11.88
2017-12-30T13:58:49.846Z,10.55
2017-12-30T14:01:20.636Z,8.25
2017-12-30T14:03:50.532Z,8.80
2017-12-30T14:06:20.350Z,6.85
2017-12-30T14:08:50.213Z,11.88
2017-12-30T14:11:20.147Z,7.53
2017-12-30T14:13:50.408Z,7.40
2017-12-30T14:16:20.225Z,11.38
2017-12-30T14:18:50.050Z,16.50
2017-12-30T14:21:19.971Z,10.63
2017-12-30T14:23:50.050Z,19.33
2017-12-30T14:26:20.050Z,9.57
2017-12-30T14:28:50.171Z,10.65
2017-12-30T14:31:19.980Z,16.90
2017-12-30T14:33:49.833Z,11.75
2017-12-30T14:36:20.412Z,19.45
2017-12-30T14:38:52.051Z,16.73
2017-12-30T14:41:21.789Z,15.20
2017-12-30T14:43:52.312Z,17.17
2017-12-30T14:46:22.194Z,16.05
2017-12-30T14:48:52.303Z,17.00
2017-12-30T14:51:22.340Z,19.30
2017-12-30T14:53:52.544Z,17.33
2017-12-30T14:56:24.866Z,15.60
2017-12-30T14:58:55.165Z,19.67
2017-12-30T15:01:25.618Z,20.30
2017-12-30T15:03:56.494Z,19.25
2017-12-30T15:06:26.714Z,20.83
2017-12-30T15:08:56.688Z,20.02
2017-12-30T15:11:26.593Z,18.58
2017-12-30T15:13:56.469Z,20.08
2017-12-30T15:16:26.360Z,20.25
2017-12-30T15:18:56.489Z,18.00
2017-12-30T15:21:26.356Z,23.17
2017-12-30T15:23:56.837Z,21.30
2017-12-30T15:26:26.877Z,20.77
2017-12-30T15:28:56.840Z,27.92
2017-12-30T15:31:37.795Z,20.67
2017-12-30T15:34:13.662Z,21.45
2017-12-30T15:36:43.750Z,29.90
2017-12-30T15:39:13.577Z,24.27
2017-12-30T15:41:43.721Z,20.60
2017-12-30T15:44:13.599Z,23.80
2017-12-30T15:46:43.272Z,18.00
2017-12-30T15:49:14.058Z,21.12
2017-12-30T15:51:44.786Z,19.60
2017-12-30T15:54:14.874Z,14.00
2017-12-30T15:56:44.971Z,13.93
2017-12-30T15:59:14.863Z,11.63
2017-12-30T16:01:45.005Z,17.30
2017-12-30T16:04:14.838Z,13.50
2017-12-30T16:06:44.961Z,16.33
2017-12-30T16:09:14.896Z,16.92
2017-12-30T16:11:44.984Z,17.92
2017-12-30T16:14:14.868Z,13.18
2017-12-30T16:16:45.883Z,15.90
2017-12-30T16:19:15.796Z,11.82
2017-12-30T16:21:45.646Z,12.68
2017-12-30T16:24:15.572Z,15.60
2017-12-30T16:26:45.437Z,9.80
2017-12-30T16:29:15.308Z,11.68
2017-12-30T16:31:45.124Z,16.00
2017-12-30T16:34:14.977Z,11.12
2017-12-30T16:36:44.849Z,16.95
2017-12-30T16:39:15.906Z,10.00
2017-12-30T16:41:46.019Z,13.55
2017-12-30T16:44:15.827Z,13.38
2017-12-30T16:46:46.711Z,13.30
2017-12-30T16:49:16.774Z,14.43
2017-12-30T16:51:46.712Z,18.52
2017-12-30T16:54:16.612Z,15.68
2017-12-30T16:56:47.041Z,23.17
2017-12-30T16:59:16.870Z,12.73
2017-12-30T17:01:46.786Z,11.82
2017-12-30T17:04:16.966Z,16.23
2017-12-30T17:06:46.613Z,17.10
2017-12-30T17:09:16.427Z,13.55
2017-12-30T17:11:47.111Z,14.07
2017-12-30T17:14:17.882Z,14.77
2017-12-30T17:16:47.680Z,9.85
2017-12-30T17:19:17.509Z,14.00
2017-12-30T17:21:48.378Z,12.30
2017-12-30T17:24:18.424Z,12.95
2017-12-30T17:26:48.618Z,13.35
2017-12-30T17:29:18.574Z,8.68
2017-12-30T17:31:48.555Z,12.82
2017-12-30T17:34:18.342Z,12.73
2017-12-30T17:36:48.080Z,9.45
2017-12-30T17:39:17.893Z,9.73
2017-12-30T17:41:47.764Z,11.85
2017-12-30T17:44:17.795Z,12.18
2017-12-30T17:46:47.653Z,10.80
2017-12-30T17:49:17.453Z,12.00
2017-12-30T17:51:47.320Z,11.95
2017-12-30T17:54:16.860Z,14.95
2017-12-30T17:56:46.806Z,14.90
2017-12-30T17:59:16.917Z,14.87
2017-12-30T18:01:46.871Z,15.82
2017-12-30T18:04:16.667Z,11.75
2017-12-30T18:06:46.573Z,14.35
2017-12-30T18:09:16.482Z,15.23
2017-12-30T18:11:46.330Z,15.60
2017-12-30T18:14:16.206Z,19.17
2017-12-30T18:16:46.112Z,17.85
2017-12-30T18:19:15.962Z,17.30
2017-12-30T18:21:45.848Z,18.52
2017-12-30T18:24:15.687Z,15.93
2017-12-30T18:26:45.694Z,17.95
2017-12-30T18:29:15.594Z,14.00
2017-12-30T18:31:45.424Z,17.23
2017-12-30T18:34:15.360Z,15.70
2017-12-30T18:36:45.443Z,13.82
2017-12-30T18:39:15.278Z,14.43
2017-12-30T18:41:45.152Z,11.57
2017-12-30T18:44:14.997Z,12.93
2017-12-30T18:46:44.860Z,12.82
2017-12-30T18:49:14.700Z,15.60
2017-12-30T18:51:44.623Z,15.07
2017-12-30T18:54:14.446Z,12.20
2017-12-30T18:56:44.278Z,15.50
2017-12-30T18:59:13.997Z,17.65
2017-12-30T19:01:44.036Z,18.62
2017-12-30T19:04:13.856Z,17.80
2017-12-30T19:06:43.898Z,15.50
2017-12-30T19:09:13.768Z,20.30
2017-12-30T19:11:43.579Z,21.62
2017-12-30T19:14:13.407Z,28.45
2017-12-30T19:16:43.169Z,27.10
2017-12-30T19:19:13.032Z,24.90
2017-12-30T19:21:42.931Z,31.12
2017-12-30T19:24:13.056Z,23.40
2017-12-30T19:26:42.919Z,22.42
2017-12-30T19:29:13.500Z,16.15
2017-12-30T19:31:43.465Z,19.17
2017-12-30T19:34:13.324Z,17.02
2017-12-30T19:36:43.169Z,17.62
2017-12-30T19:39:13.007Z,13.13
2017-12-30T19:41:43.018Z,13.93
2017-12-30T19:44:12.836Z,15.18
2017-12-30T19:46:42.757Z,16.30
2017-12-30T19:49:12.649Z,15.35
2017-12-30T19:51:42.472Z,15.75
2017-12-30T19:54:12.428Z,17.48
2017-12-30T19:56:42.297Z,19.80
2017-12-30T19:59:12.213Z,16.10
2017-12-30T20:01:42.064Z,19.00
2017-12-30T20:04:11.902Z,21.37
2017-12-30T20:06:41.723Z,19.45
2017-12-30T20:09:11.588Z,21.50
2017-12-30T20:11:41.421Z,16.23
2017-12-30T20:14:11.237Z,22.33
2017-12-30T20:16:41.223Z,20.80
2017-12-30T20:19:11.044Z,21.48
2017-12-30T20:21:40.886Z,22.98
2017-12-30T20:24:10.720Z,23.67
2017-12-30T20:26:40.540Z,23.95
2017-12-30T20:29:10.358Z,24.17
2017-12-30T20:31:40.194Z,21.98
2017-12-30T20:34:10.016Z,21.92
2017-12-30T20:36:39.859Z,18.25
2017-12-30T20:39:09.681Z,20.60
2017-12-30T20:41:39.503Z,17.67
2017-12-30T20:44:09.336Z,19.95
2017-12-30T20:46:39.158Z,18.17
2017-12-30T20:49:09.019Z,20.77
2017-12-30T20:51:38.856Z,21.15
2017-12-30T20:54:08.694Z,21.67
2017-12-30T20:56:38.536Z,19.20
2017-12-30T20:59:08.476Z,28.45
2017-12-30T21:01:38.306Z,24.60
2017-12-30T21:04:08.171Z,24.10
2017-12-30T21:06:37.996Z,24.40
2017-12-30T21:09:07.883Z,22.92
2017-12-30T21:11:37.726Z,23.90
2017-12-30T21:14:07.614Z,18.98
2017-12-30T21:16:37.520Z,21.00
2017-12-30T21:19:07.364Z,21.65
2017-12-30T21:21:37.204Z,19.80
2017-12-30T21:24:06.738Z,21.85
2017-12-30T21:26:36.553Z,18.37
2017-12-30T21:29:06.405Z,19.25
2017-12-30T21:31:36.253Z,20.70
2017-12-30T21:34:06.190Z,19.75
2017-12-30T21:36:36.058Z,24.33
2017-12-30T21:39:05.316Z,22.17
2017-12-30T21:41:35.211Z,24.20
2017-12-30T21:44:05.089Z,20.30
2017-12-30T21:46:34.946Z,20.77
2017-12-30T21:49:04.780Z,21.73
2017-12-30T21:51:34.717Z,19.42
2017-12-30T21:54:04.546Z,22.58
2017-12-30T21:56:34.418Z,21.52
2017-12-30T21:59:04.241Z,20.20
2017-12-30T22:01:34.080Z,20.55
2017-12-30T22:04:03.920Z,21.87
2017-12-30T22:06:33.832Z,20.15
2017-12-30T22:09:03.236Z,25.15
2017-12-30T22:11:33.083Z,22.75
2017-12-30T22:14:02.926Z,23.52
2017-12-30T22:16:32.797Z,24.10
2017-12-30T22:19:02.622Z,20.50
2017-12-30T22:21:32.516Z,20.08
2017-12-30T22:24:02.370Z,21.50
2017-12-30T22:26:32.222Z,22.17
2017-12-30T22:29:02.065Z,20.37
2017-12-30T22:31:31.889Z,20.40
2017-12-30T22:34:01.774Z,21.42
2017-12-30T22:36:31.654Z,17.87
2017-12-30T22:39:01.492Z,22.42
2017-12-30T22:41:31.112Z,25.37
2017-12-30T22:44:00.707Z,25.60
2017-12-30T22:46:31.452Z,28.35
2017-12-30T22:49:01.350Z,26.15
2017-12-30T22:51:31.460Z,30.62
2017-12-30T22:54:01.669Z,26.73
2017-12-30T22:56:31.578Z,28.67
2017-12-30T22:59:01.424Z,31.87
2017-12-30T23:01:31.248Z,39.15
2017-12-30T23:04:01.050Z,35.20
2017-12-30T23:06:30.973Z,43.13
2017-12-30T23:09:00.827Z,33.65
2017-12-30T23:11:30.645Z,49.95
2017-12-30T23:14:00.241Z,39.60
2017-12-30T23:16:30.064Z,36.80
2017-12-30T23:18:59.926Z,37.67
2017-12-30T23:21:29.748Z,41.72
2017-12-30T23:23:59.580Z,41.30
2017-12-30T23:26:29.436Z,43.47
2017-12-30T23:28:59.279Z,52.25
2017-12-30T23:31:29.125Z,45.97
2017-12-30T23:33:58.961Z,41.30
2017-12-30T23:36:28.454Z,53.45
2017-12-30T23:38:58.285Z,55.35
2017-12-30T23:41:28.309Z,40.28
2017-12-30T23:43:58.146Z,60.35
2017-12-30T23:46:27.978Z,53.40
2017-12-30T23:48:57.800Z,52.47
2017-12-30T23:51:27.639Z,56.30
2017-12-30T23:53:57.461Z,49.42
2017-12-30T23:56:27.296Z,61.90
2017-12-30T23:58:57.124Z,48.90
